Airfield :
LOGIN :

Register | Disclaimer

   EN    FR    IT 

 










Legend :    VFR   Marginal VFR   IFR   Intensive IFR   Very Intensive IFR
Visi :
Ceiling :
>= 8 km
>= 3000ft
5 to 8 km
1000 to 3000 ft
1500m to 5 km
500 to 1000 ft
800 to 1500m
200 to 500 ft
< 800m
< 200 ft
Symbols :   Thunderstorms  Fog  Heavy snow  Heavy precipitations  Wind > 20 kt
SIGMETs :     Misc.  Thunderstorms  Icing  Turbulence  Mountain Waves  Volcanic Ashes







- Airport Elevation : 876 ft
- IATA code : MBX


LJMB - Maribor

CURRENT METAR :
  • 251930Z 03008KT 6000 -RA FEW012 OVC023 05/02 Q1017 RERA

EXPIRED METARs :
  • 251900Z 36010KT 6000 RA FEW012 OVC022 05/03 Q1016
  • 251830Z 02008KT 350V060 9999 RA FEW008 OVC029 07/03 Q1015
  • 251800Z 34010KT 9999 FEW008 OVC032 07/02 Q1014
  • 251730Z 35007KT 330V030 9999 -RA FEW008 OVC026 06/04 Q1014 RERA
  • 251700Z 36011G22KT 8000 RA FEW008 OVC026 07/04 Q1013

TAF TAF LJMB
Valid from the 25 at 18:00 until the 26 at 18:00 UTC


251700Z 2518/2618 01005KT 4000 RA BR FEW008 BKN025 OVC050
BECMG 2518/2520 9999 NSW FEW030 OVC110
BECMG 2520/2522 CAVOK
TEMPO 2607/2618 01010KT
No reported NOTAMs for that airfield.
1 SIGMET reported for the Ljubljana FIR (LJLA) :
 
Embedded thunderstorms
LJLA SIGMET 6 VALID 251900/252000 LJLJ
LJLA LJUBLJANA FIR EMBD TS OBS WI N4536 E01434 - N4608 E01541 - N4548 E01550 - N4521 E01508 - N4536 E01434 TOP FL300 MOV SE 10KT WKN=



MET'MAP, your aeronautical weather chart ! - Copyright ORBIFLY December 2007 - Disclaimer

ORBIFLY MET'MAP TEAM :

Programming & Development : Alexandra Zaïnal
Concept & Development : Baudouin d'Aumeries
Co-Development & Prog : Marc-Olivier Méhu
Technical & hardware support : Manuel Goepfert

Contact : metmap@orbifly.com




SOURCES & CREDITS :

   NOAA